Time;durP1;ratioP1;P1;durP2;ratioP2;P2;SDS_P1;SDS_P2;PMS_P1;PMS_P2;Temp;Humidity;BMP_temperature;BMP_pressure;BME280_temperature;BME280_humidity;BME280_pressure;Samples;Min_cycle;Max_cycle;Signal;HPM_P1;HPM_P2
2022/08/07 00:01:17;;;;;;;2.08;0.40;;;14.60;91.50;;;14.08;100.00;98247.53;4943441;29;20047;-66
2022/08/07 00:04:05;;;;;;;1.33;0.40;;;14.70;91.40;;;14.10;100.00;98246.56;4940837;29;20055;-66
2022/08/07 00:06:38;;;;;;;1.98;0.40;;;14.70;91.40;;;14.12;100.00;98244.72;4939851;28;20055;-66
2022/08/07 00:09:22;;;;;;;3.47;0.30;;;14.70;91.60;;;14.14;100.00;98234.19;4939474;28;20058;-66
2022/08/07 00:12:01;;;;;;;2.22;0.38;;;14.70;91.40;;;14.18;100.00;98231.38;4940963;29;20106;-66
2022/08/07 00:14:29;;;;;;;3.03;0.40;;;14.80;91.40;;;14.04;100.00;98228.56;4937699;28;20048;-66
2022/08/07 00:17:01;;;;;;;1.48;0.30;;;14.70;91.50;;;14.06;100.00;98231.09;4938938;28;20103;-66
2022/08/07 00:19:31;;;;;;;1.25;0.30;;;14.70;91.60;;;13.95;100.00;98223.75;4941096;28;20505;-66
2022/08/07 00:22:18;;;;;;;1.65;0.32;;;14.60;91.80;;;13.98;100.00;98228.81;4942822;29;20057;-66
2022/08/07 00:25:06;;;;;;;1.08;0.40;;;14.60;91.90;;;14.06;100.00;98220.66;4940234;28;20524;-66
2022/08/07 00:27:36;;;;;;;1.40;0.30;;;14.70;91.80;;;14.08;100.00;98219.66;4939921;28;20094;-66
2022/08/07 00:30:20;;;;;;;1.77;0.32;;;14.70;91.80;;;14.03;100.00;98221.66;4937810;29;20097;-66
2022/08/07 00:32:59;;;;;;;1.77;0.30;;;14.70;91.80;;;13.97;100.00;98214.09;4943124;29;20427;-66
2022/08/07 00:35:27;;;;;;;0.77;0.20;;;14.70;92.00;;;13.99;100.00;98218.34;4941158;29;20153;-66
2022/08/07 00:37:58;;;;;;;2.42;0.40;;;14.60;92.00;;;14.02;100.00;98225.16;4940735;29;20103;-66
2022/08/07 00:40:27;;;;;;;1.65;0.40;;;14.70;92.00;;;13.93;100.00;98216.00;4939180;29;20583;-66
2022/08/07 00:43:11;;;;;;;2.92;0.40;;;14.60;92.10;;;13.87;100.00;98211.06;4950489;28;20494;-66
2022/08/07 00:46:00;;;;;;;1.08;0.45;;;14.60;92.30;;;13.92;100.00;98216.91;4951200;28;20082;-66
2022/08/07 00:48:28;;;;;;;2.00;0.35;;;14.60;92.20;;;13.94;100.00;98211.66;4938180;28;21989;-66
2022/08/07 00:50:59;;;;;;;1.85;0.40;;;14.60;92.20;;;13.92;100.00;98209.09;4953219;28;20115;-66
2022/08/07 00:53:27;;;;;;;1.02;0.30;;;14.60;92.40;;;13.81;100.00;98212.19;4955710;28;20043;-66
2022/08/07 00:56:14;;;;;;;2.58;0.40;;;14.50;92.50;;;13.79;100.00;98202.75;4940216;29;20074;-66
2022/08/07 00:58:43;;;;;;;1.45;0.50;;;14.40;92.60;;;13.75;100.00;98199.44;4942388;28;20103;-66
2022/08/07 01:01:19;;;;;;;1.52;0.40;;;14.40;92.70;;;13.69;100.00;98196.25;4953362;28;20613;-66
2022/08/07 01:03:52;;;;;;;1.50;0.30;;;14.40;92.80;;;13.60;100.00;98193.13;4950911;28;20051;-66
2022/08/07 01:06:27;;;;;;;2.58;0.30;;;14.30;93.00;;;13.55;100.00;98202.09;4938866;28;20099;-66
2022/08/07 01:08:56;;;;;;;1.77;0.40;;;14.30;93.20;;;13.57;100.00;98198.50;4937126;28;20154;-66
2022/08/07 01:11:29;;;;;;;0.95;0.40;;;14.30;93.20;;;13.52;100.00;98199.59;4949906;28;20134;-66
2022/08/07 01:14:17;;;;;;;0.73;0.22;;;14.20;93.30;;;13.46;100.00;98200.75;4940858;29;20046;-66
2022/08/07 01:16:55;;;;;;;0.73;0.30;;;14.20;93.40;;;13.36;100.00;98197.69;4934869;28;20043;-66
2022/08/07 01:19:25;;;;;;;2.50;0.40;;;14.20;93.60;;;13.36;100.00;98202.03;4939727;28;20580;-66
2022/08/07 01:21:58;;;;;;;2.65;0.25;;;14.10;93.70;;;13.23;100.00;98206.06;4934573;28;20047;-66
2022/08/07 01:24:29;;;;;;;2.42;0.30;;;14.00;93.90;;;13.23;100.00;98201.72;4937609;28;20195;-66
2022/08/07 01:26:58;;;;;;;2.30;0.38;;;13.90;94.00;;;13.26;100.00;98201.56;4949073;28;20134;-66
2022/08/07 01:29:27;;;;;;;1.88;0.50;;;13.90;94.10;;;13.15;100.00;98196.81;4953410;28;20057;-66
2022/08/07 01:31:59;;;;;;;2.60;0.45;;;13.90;94.40;;;13.02;100.00;98198.25;4956379;28;20058;-66
2022/08/07 01:34:32;;;;;;;0.93;0.30;;;13.80;94.50;;;12.95;100.00;98204.63;4958663;28;20131;-66
2022/08/07 01:37:00;;;;;;;3.25;0.40;;;13.80;94.90;;;12.92;100.00;98204.78;4939146;28;20123;-66
2022/08/07 01:39:29;;;;;;;2.83;0.47;;;13.70;95.30;;;12.94;100.00;98206.41;4941014;28;20455;-66
2022/08/07 01:42:16;;;;;;;1.00;0.32;;;13.60;95.10;;;12.71;100.00;98202.16;4941561;28;20056;-66
2022/08/07 01:45:05;;;;;;;3.05;0.40;;;13.50;95.60;;;12.63;100.00;98204.22;4937072;28;20513;-64
2022/08/07 01:47:44;;;;;;;0.93;0.38;;;13.50;95.80;;;12.49;100.00;98202.16;4941293;28;20083;-66
2022/08/07 01:50:35;;;;;;;1.48;0.40;;;13.30;96.20;;;12.38;100.00;98209.56;4939323;28;20446;-66
2022/08/07 01:53:05;;;;;;;1.85;0.40;;;13.20;96.60;;;12.44;100.00;98211.09;4933917;28;20055;-66
2022/08/07 01:55:44;;;;;;;0.88;0.30;;;13.20;96.80;;;12.10;100.00;98209.81;4953866;28;20511;-64
2022/08/07 01:58:17;;;;;;;1.55;0.30;;;13.00;97.40;;;12.05;100.00;98212.59;4956809;28;20057;-64
2022/08/07 02:01:03;;;;;;;1.38;0.32;;;12.90;97.80;;;12.09;100.00;98211.56;4956546;28;20587;-64
2022/08/07 02:04:00;;;;;;;1.45;0.30;;;12.90;98.20;;;12.08;100.00;98209.84;4944053;28;20052;-64
2022/08/07 02:06:31;;;;;;;1.30;0.40;;;12.80;98.40;;;12.10;100.00;98215.00;4940944;28;20086;-64
2022/08/07 02:09:04;;;;;;;2.67;0.40;;;12.80;98.60;;;12.15;100.00;98207.88;4940921;28;20042;-64
2022/08/07 02:11:38;;;;;;;1.48;0.40;;;12.80;98.70;;;12.08;100.00;98201.22;4941046;28;20572;-64
2022/08/07 02:14:27;;;;;;;1.42;0.40;;;12.80;99.00;;;11.99;100.00;98193.75;4938838;28;20070;-64
2022/08/07 02:17:08;;;;;;;1.77;0.40;;;12.80;99.20;;;12.10;100.00;98199.41;4956360;28;20043;-64
2022/08/07 02:19:41;;;;;;;2.38;0.45;;;12.80;99.30;;;11.90;100.00;98193.19;4941915;29;20417;-63
2022/08/07 02:22:30;;;;;;;1.52;0.35;;;12.80;99.70;;;11.76;100.00;98192.84;4953935;28;20059;-64
2022/08/07 02:24:58;;;;;;;1.15;0.40;;;12.70;99.90;;;11.70;100.00;98190.50;4957780;28;20055;-64
2022/08/07 02:27:28;;;;;;;1.58;0.50;;;12.60;99.90;;;11.57;100.00;98194.44;4943244;28;20067;-64
2022/08/07 02:30:03;;;;;;;2.88;0.47;;;12.50;99.90;;;11.41;100.00;98196.75;4952499;28;20050;-64
2022/08/07 02:32:36;;;;;;;;;;;12.30;99.90;;;11.34;100.00;98198.72;4943615;28;20081;-66
2022/08/07 02:35:24;;;;;;;1.30;0.30;;;12.20;99.90;;;11.35;100.00;98194.38;4952497;28;19973;-64
2022/08/07 02:38:15;;;;;;;1.90;0.40;;;12.20;99.90;;;11.33;100.00;98193.56;4952342;28;20114;-65
2022/08/07 02:40:44;;;;;;;1.75;0.40;;;;;;;11.30;100.00;98199.72;4959497;28;20503;-66
2022/08/07 02:43:14;;;;;;;0.50;0.40;;;12.10;99.90;;;11.10;100.00;98193.47;4937547;28;20047;-66
2022/08/07 02:45:43;;;;;;;1.35;0.40;;;12.00;99.90;;;11.19;100.00;98197.50;4943279;28;20115;-66
2022/08/07 02:48:27;;;;;;;1.27;0.40;;;12.00;99.90;;;11.18;100.00;98189.78;4942626;28;20110;-66
2022/08/07 02:50:56;;;;;;;0.65;0.30;;;12.00;99.90;;;11.27;100.00;98186.84;4941101;29;20040;-66
2022/08/07 02:53:32;;;;;;;2.10;0.40;;;12.00;99.90;;;11.34;100.00;98179.69;4937918;28;20060;-66
2022/08/07 02:56:08;;;;;;;1.48;0.38;;;12.10;99.90;;;11.34;100.00;98177.94;4960111;28;20039;-65
2022/08/07 02:58:49;;;;;;;1.35;0.38;;;12.10;99.90;;;11.40;100.00;98176.84;4947410;28;20059;-65
2022/08/07 03:01:18;;;;;;;0.60;0.30;;;12.10;99.90;;;11.49;100.00;98174.78;4958222;28;20054;-65
2022/08/07 03:04:03;;;;;;;2.13;0.40;;;12.20;99.90;;;11.42;100.00;98177.63;4947731;28;20051;-66
2022/08/07 03:06:42;;;;;;;3.78;0.40;;;12.20;99.90;;;11.41;100.00;98171.59;4951420;28;20054;-66
2022/08/07 03:09:13;;;;;;;2.17;0.40;;;12.20;99.90;;;11.42;100.00;98169.84;4938922;28;20051;-65
2022/08/07 03:12:03;;;;;;;0.65;0.32;;;12.20;99.90;;;11.39;100.00;98176.00;4941167;28;20447;-66
2022/08/07 03:14:40;;;;;;;0.73;0.30;;;12.20;99.90;;;11.38;100.00;98176.06;4941040;28;20053;-66
2022/08/07 03:17:15;;;;;;;2.17;0.50;;;12.20;99.90;;;11.35;100.00;98169.22;4952640;28;20092;-66
2022/08/07 03:19:42;;;;;;;0.90;0.30;;;12.10;99.90;;;11.33;100.00;98168.41;4944653;28;20044;-66
2022/08/07 03:22:22;;;;;;;1.95;0.35;;;12.10;99.90;;;11.23;100.00;98170.50;4938063;28;20223;-66
2022/08/07 03:24:56;;;;;;;0.88;0.30;;;12.00;99.90;;;11.16;100.00;98163.00;4941981;28;20118;-66
2022/08/07 03:27:23;;;;;;;1.15;0.30;;;12.00;99.90;;;11.19;100.00;98170.66;4955369;28;20062;-66
2022/08/07 03:29:58;;;;;;;1.88;0.60;;;11.90;99.90;;;11.01;100.00;98161.78;4951452;28;20432;-66
2022/08/07 03:32:31;;;;;;;0.30;0.30;;;11.80;99.90;;;10.98;100.00;98167.94;4953212;28;20579;-66
2022/08/07 03:35:02;;;;;;;0.90;0.30;;;11.80;99.90;;;10.95;100.00;98168.03;4957942;28;20054;-66
2022/08/07 03:37:51;;;;;;;1.25;0.40;;;11.70;99.90;;;10.88;100.00;98170.00;4951766;28;20051;-66
2022/08/07 03:40:22;;;;;;;2.28;0.40;;;11.70;99.90;;;10.76;100.00;98174.75;4956463;28;20056;-66
2022/08/07 03:42:58;;;;;;;1.38;0.30;;;11.60;99.90;;;10.74;100.00;98176.56;4937311;28;20662;-66
2022/08/07 03:45:28;;;;;;;0.80;0.30;;;11.60;99.90;;;10.59;100.00;98181.38;4927035;29;20106;-66
2022/08/07 03:47:58;;;;;;;1.33;0.32;;;11.50;99.90;;;10.57;100.00;98183.16;4940983;28;20133;-66
2022/08/07 03:50:25;;;;;;;1.60;0.40;;;11.40;99.90;;;10.42;100.00;98181.06;4942241;28;20051;-66
2022/08/07 03:52:58;;;;;;;1.05;0.30;;;11.30;99.90;;;10.48;100.00;98183.47;4954640;28;20138;-66
2022/08/07 03:55:28;;;;;;;2.97;0.50;;;11.30;99.90;;;10.44;100.00;98182.69;4955913;28;20127;-66
2022/08/07 03:58:18;;;;;;;1.77;0.40;;;11.30;99.90;;;10.44;100.00;98192.25;4955306;28;20095;-65
2022/08/07 04:01:08;;;;;;;1.13;0.32;;;11.30;99.90;;;10.40;100.00;98188.03;4951487;28;20043;-65
2022/08/07 04:03:37;;;;;;;2.85;0.38;;;11.30;99.90;;;10.39;100.00;98189.78;4955402;28;20154;-66
2022/08/07 04:06:20;;;;;;;1.35;0.40;;;11.30;99.90;;;10.33;100.00;98187.41;4941375;28;20505;-66
2022/08/07 04:09:06;;;;;;;0.95;0.40;;;11.20;99.90;;;10.40;100.00;98188.91;4941908;28;20075;-66
2022/08/07 04:11:42;;;;;;;0.65;0.40;;;11.20;99.90;;;10.60;100.00;98195.19;4940842;28;20205;-66
2022/08/07 04:14:31;;;;;;;2.45;1.02;;;11.30;99.90;;;10.52;100.00;98195.44;4935989;28;20074;-66
2022/08/07 04:17:05;;;;;;;1.95;0.40;;;11.40;99.90;;;10.55;100.00;98197.94;4940831;28;20588;-66
2022/08/07 04:19:49;;;;;;;2.17;0.45;;;11.40;99.90;;;10.54;100.00;98196.25;4937002;28;20052;-65
2022/08/07 04:22:23;;;;;;;0.55;0.30;;;11.40;99.90;;;10.53;100.00;98197.13;4953331;28;20127;-66
2022/08/07 04:24:56;;;;;;;1.88;0.40;;;11.40;99.90;;;10.55;100.00;98199.69;4958423;28;20059;-66
2022/08/07 04:27:24;;;;;;;2.13;0.30;;;11.40;99.90;;;10.61;100.00;98202.09;4944963;28;20401;-65
2022/08/07 04:29:53;;;;;;;2.58;0.47;;;11.40;99.90;;;10.55;100.00;98197.94;4955664;28;20051;-65
2022/08/07 04:32:29;;;;;;;6.55;0.35;;;11.40;99.90;;;10.52;100.00;98195.44;4952187;28;20059;-66
2022/08/07 04:35:03;;;;;;;1.55;0.43;;;11.40;99.90;;;10.51;100.00;98204.13;4950766;28;20102;-66
2022/08/07 04:37:34;;;;;;;1.95;0.30;;;11.40;99.90;;;10.51;100.00;98209.31;4955162;28;20054;-66
2022/08/07 04:40:21;;;;;;;1.55;0.40;;;11.30;99.90;;;10.36;100.00;98210.66;4938873;28;20134;-66
2022/08/07 04:42:55;;;;;;;3.33;0.95;;;11.30;99.90;;;10.32;100.00;98211.66;4954564;28;20393;-66
2022/08/07 04:45:47;;;;;;;1.38;0.30;;;11.30;99.90;;;10.36;100.00;98218.44;4948465;28;20058;-66
2022/08/07 04:49:04;;;;;;;1.08;0.40;;;11.30;99.90;;;10.50;100.00;98222.34;4952332;28;20059;-65
2022/08/07 04:52:13;;;;;;;0.93;0.30;;;11.40;99.90;;;10.52;100.00;98218.81;4955163;28;20162;-66
2022/08/07 04:55:00;;;;;;;1.35;0.40;;;11.40;99.90;;;10.55;100.00;98225.66;4954560;28;20539;-66
2022/08/07 04:57:56;;;;;;;4.95;0.88;;;11.40;99.90;;;10.61;100.00;98223.69;4937567;28;20043;-66
2022/08/07 05:01:07;;;;;;;1.08;0.40;;;11.50;99.90;;;10.69;100.00;98223.44;4941977;28;20077;-66
2022/08/07 05:04:09;;;;;;;1.02;0.40;;;11.60;99.90;;;10.81;100.00;98225.66;4955141;28;20047;-65
2022/08/07 05:06:51;;;;;;;3.10;0.40;;;11.60;99.90;;;10.88;100.00;98227.13;4936387;28;20655;-66
2022/08/07 05:09:46;;;;;;;1.10;0.40;;;11.70;99.90;;;11.00;100.00;98219.84;4953703;28;20554;-66
2022/08/07 05:12:20;;;;;;;1.70;0.40;;;11.80;99.90;;;11.10;100.00;98223.81;4950250;28;20051;-66
2022/08/07 05:15:14;;;;;;;0.65;0.30;;;11.90;99.90;;;11.26;100.00;98222.38;4939566;28;20508;-65
2022/08/07 05:17:56;;;;;;;1.67;0.40;;;12.10;99.90;;;11.25;100.00;98220.69;4952871;28;20043;-66
2022/08/07 05:20:34;;;;;;;1.65;0.40;;;12.10;99.90;;;11.32;100.00;98223.91;4953264;28;20052;-66
2022/08/07 05:23:32;;;;;;;1.63;0.40;;;12.20;99.90;;;11.54;100.00;98218.81;4938425;28;20145;-66
2022/08/07 05:26:04;;;;;;;3.67;0.35;;;12.30;99.90;;;11.61;100.00;98229.81;4939235;28;20047;-66
2022/08/07 05:28:45;;;;;;;1.50;0.30;;;12.40;99.90;;;11.72;100.00;98231.13;4950818;28;20141;-66
2022/08/07 05:31:19;;;;;;;0.80;0.35;;;12.50;99.90;;;11.84;100.00;98227.22;4953109;28;20076;-66
2022/08/07 05:33:48;;;;;;;1.45;0.40;;;12.70;99.90;;;12.05;100.00;98230.81;4942254;28;20051;-66
2022/08/07 05:36:32;;;;;;;4.15;0.60;;;12.90;99.90;;;12.23;100.00;98231.00;4936719;28;20131;-66
2022/08/07 05:39:03;;;;;;;1.73;0.30;;;13.10;99.90;;;12.45;100.00;98229.25;4939404;28;20389;-66
2022/08/07 05:41:51;;;;;;;0.40;0.20;;;13.30;99.90;;;12.64;100.00;98229.38;4939936;28;20128;-66
2022/08/07 05:44:34;;;;;;;0.73;0.20;;;13.50;99.90;;;12.87;100.00;98230.19;4940900;28;20142;-66
2022/08/07 05:47:02;;;;;;;1.52;0.30;;;13.70;99.90;;;12.88;100.00;98227.50;4936488;28;20150;-66
2022/08/07 05:49:48;;;;;;;1.15;0.50;;;13.90;99.90;;;13.16;100.00;98219.38;4936839;28;20508;-66
2022/08/07 05:52:19;;;;;;;2.33;0.30;;;14.10;99.90;;;13.27;100.00;98215.44;4937235;28;20434;-66
2022/08/07 05:54:58;;;;;;;2.33;0.30;;;14.30;99.90;;;13.29;100.00;98211.88;4935693;28;20106;-66
2022/08/07 05:57:38;;;;;;;1.58;0.30;;;14.50;99.90;;;13.51;100.00;98206.59;4939227;28;20043;-66
2022/08/07 06:00:09;;;;;;;1.75;0.30;;;14.60;99.90;;;13.63;100.00;98201.75;4954829;28;20465;-66
2022/08/07 06:02:49;;;;;;;2.95;0.35;;;14.70;99.90;;;13.76;100.00;98206.34;4951851;28;20137;-66
2022/08/07 06:05:19;;;;;;;1.58;0.32;;;14.80;99.90;;;14.01;100.00;98208.66;4952465;28;20054;-66
2022/08/07 06:07:58;;;;;;;0.75;0.30;;;15.00;99.90;;;14.10;100.00;98201.34;4938895;28;20058;-66
2022/08/07 06:10:45;;;;;;;0.25;0.20;;;15.10;99.90;;;14.28;100.00;98212.66;4937727;28;20062;-66
2022/08/07 06:13:17;;;;;;;1.73;0.40;;;15.20;99.90;;;14.29;100.00;98206.53;4941925;28;20046;-66
2022/08/07 06:16:00;;;;;;;2.25;0.30;;;15.40;99.90;;;14.58;100.00;98206.00;4952966;28;20137;-63
2022/08/07 06:18:31;;;;;;;0.93;0.25;;;15.50;99.90;;;14.61;100.00;98208.44;4951410;28;20059;-66
2022/08/07 06:21:03;;;;;;;3.00;0.40;;;15.70;99.90;;;14.65;100.00;98214.38;4938193;28;20043;-66
2022/08/07 06:23:50;;;;;;;1.05;0.30;;;15.80;99.90;;;14.72;100.00;98210.56;4942510;28;20048;-63
2022/08/07 06:26:41;;;;;;;1.63;0.30;;;15.90;99.90;;;14.91;100.00;98212.25;4940317;28;20044;-63
2022/08/07 06:29:09;;;;;;;1.42;0.30;;;16.10;99.90;;;15.02;100.00;98215.16;4940053;28;20050;-66
2022/08/07 06:31:37;;;;;;;1.48;0.32;;;16.10;99.90;;;15.02;100.00;98221.25;4938551;28;20450;-63
2022/08/07 06:34:16;;;;;;;1.52;0.30;;;16.20;99.90;;;15.15;100.00;98208.41;4950911;28;20401;-66
2022/08/07 06:36:47;;;;;;;1.10;0.30;;;16.20;99.90;;;15.23;100.00;98208.00;4952932;28;20078;-66
2022/08/07 06:39:19;;;;;;;1.08;0.30;;;16.30;99.90;;;15.38;100.00;98204.59;4953752;28;20070;-63
2022/08/07 06:42:12;;;;;;;1.05;0.30;;;16.40;99.90;;;15.41;100.00;98217.50;4950376;28;20502;-66
2022/08/07 06:44:41;;;;;;;2.10;0.60;;;16.50;99.90;;;15.65;100.00;98209.31;4941701;28;20510;-63
2022/08/07 06:47:08;;;;;;;0.40;0.20;;;16.70;99.90;;;15.72;100.00;98212.50;4953782;28;20146;-63
2022/08/07 06:49:42;;;;;;;2.78;0.40;;;16.90;99.90;;;15.78;100.00;98201.66;4956415;28;20090;-64
2022/08/07 06:52:26;;;;;;;;;;;17.00;99.90;;;15.82;100.00;98206.66;4942789;28;20294;-63
2022/08/07 06:55:15;;;;;;;2.17;0.40;;;17.20;99.90;;;15.92;100.00;98200.91;4954818;28;20025;-65
2022/08/07 06:58:09;;;;;;;2.47;0.30;;;17.20;99.50;;;16.16;100.00;98204.81;4940338;28;20043;-66
2022/08/07 07:00:39;;;;;;;1.58;0.30;;;17.30;99.40;;;16.24;100.00;98204.41;4954898;28;20047;-66
2022/08/07 07:03:09;;;;;;;3.72;0.40;;;17.30;99.20;;;16.23;100.00;98200.09;4940376;28;20161;-65
2022/08/07 07:05:40;;;;;;;1.88;0.47;;;17.40;98.80;;;16.34;100.00;98202.97;4946389;28;20150;-65
2022/08/07 07:08:29;;;;;;;0.73;0.30;;;17.50;99.00;;;16.54;100.00;98207.09;4946386;28;20054;-65
2022/08/07 07:11:00;;;;;;;2.97;0.43;;;17.60;99.10;;;16.78;100.00;98204.81;4947107;28;20134;-66
2022/08/07 07:13:46;;;;;;;3.33;0.45;;;17.90;98.80;;;16.56;100.00;98202.59;4947190;28;20066;-65
2022/08/07 07:16:27;;;;;;;3.92;0.30;;;18.10;98.20;;;16.80;100.00;98207.38;4959575;28;20896;-65
2022/08/07 07:19:02;;;;;;;0.50;0.30;;;18.00;98.20;;;16.94;100.00;98199.56;4964925;28;20043;-66
2022/08/07 07:21:51;;;;;;;2.58;0.50;;;18.00;98.10;;;16.81;100.00;98201.19;4949478;28;20054;-65
2022/08/07 07:24:41;;;;;;;1.20;0.32;;;18.10;98.00;;;16.85;100.00;98202.72;4948831;28;20051;-65
2022/08/07 07:27:17;;;;;;;0.45;0.22;;;18.10;97.60;;;17.14;100.00;98199.22;4959395;28;20078;-66
2022/08/07 07:29:51;;;;;;;1.40;0.30;;;18.10;97.80;;;17.36;100.00;98203.22;4961678;28;20098;-65
2022/08/07 07:32:39;;;;;;;;;;;18.30;97.80;;;17.46;100.00;98196.44;4944819;28;20106;-66
2022/08/07 07:35:11;;;;;;;1.58;0.40;;;18.50;97.70;;;17.63;100.00;98192.81;4953303;28;19942;-66
2022/08/07 07:37:41;;;;;;;1.35;0.30;;;18.70;97.50;;;17.93;100.00;98197.13;4959887;28;20071;-66
2022/08/07 07:40:21;;;;;;;1.48;0.30;;;18.80;97.20;;;17.75;100.00;98197.28;4943480;28;20126;-66
2022/08/07 07:42:54;;;;;;;2.17;0.40;;;18.90;96.60;;;17.67;100.00;98194.28;4961632;28;20110;-65
2022/08/07 07:45:26;;;;;;;1.50;0.30;;;18.80;96.30;;;17.80;100.00;98190.94;4962209;28;20063;-66
2022/08/07 07:48:19;;;;;;;1.48;0.40;;;18.80;96.60;;;17.82;100.00;98191.72;4947239;28;20142;-66
2022/08/07 07:51:03;;;;;;;3.08;0.30;;;18.90;96.60;;;17.88;100.00;98186.91;4960563;28;20125;-64
2022/08/07 07:53:42;;;;;;;1.38;0.20;;;19.00;96.20;;;18.35;100.00;98182.19;4945778;28;20066;-66
2022/08/07 07:56:19;;;;;;;3.35;0.38;;;19.20;96.50;;;18.57;100.00;98186.91;4959081;28;20190;-66
2022/08/07 07:59:02;;;;;;;6.80;0.40;;;19.50;96.40;;;18.75;100.00;98185.69;4960252;28;20059;-64
2022/08/07 08:01:33;;;;;;;2.05;0.30;;;19.80;95.70;;;18.90;100.00;98186.47;4958339;28;20070;-66
2022/08/07 08:04:24;;;;;;;1.70;0.40;;;19.90;95.70;;;19.23;100.00;98182.53;4952998;28;20047;-63
2022/08/07 08:06:53;;;;;;;;;;;20.00;95.90;;;19.14;100.00;98177.91;4954258;28;20059;-64
2022/08/07 08:09:24;;;;;;;3.35;0.50;;;20.10;95.70;;;19.30;100.00;98173.25;4948117;28;20395;-65
2022/08/07 08:11:57;;;;;;;2.22;0.32;;;20.10;95.90;;;19.38;100.00;98180.63;4942677;28;20054;-66
2022/08/07 08:14:34;;;;;;;1.15;0.40;;;20.30;95.60;;;19.10;100.00;98187.78;4955079;28;20142;-66
2022/08/07 08:17:09;;;;;;;2.20;0.40;;;20.20;95.20;;;19.30;100.00;98178.53;4956975;28;20047;-66
2022/08/07 08:20:02;;;;;;;1.05;0.40;;;20.20;95.10;;;19.27;100.00;98172.63;4955579;28;20059;-64
2022/08/07 08:28:39;;;;;;;1.02;0.50;;;20.40;94.90;;;19.79;100.00;98169.84;4952397;28;20138;-64
2022/08/07 08:31:19;;;;;;;2.60;0.60;;;20.70;95.40;;;20.01;100.00;98168.34;4954252;28;20085;-64
2022/08/07 08:34:08;;;;;;;2.53;0.60;;;21.00;95.10;;;20.16;100.00;98171.66;4957584;28;20051;-64
2022/08/07 08:36:39;;;;;;;;;;;21.10;95.40;;;20.17;100.00;98171.56;4947361;28;20744;-64
2022/08/07 08:39:12;;;;;;;0.90;0.55;;;21.20;95.10;;;20.12;100.00;98165.78;4949649;28;20044;-64
2022/08/07 08:41:48;;;;;;;1.92;0.50;;;21.30;94.80;;;20.38;100.00;98163.88;4957104;28;20046;-64
2022/08/07 08:44:53;;;;;;;3.13;0.40;;;21.40;94.60;;;20.72;100.00;98168.50;4952812;28;20059;-64
2022/08/07 08:47:28;;;;;;;2.08;0.60;;;21.70;95.00;;;20.86;100.00;98161.22;4954061;28;20082;-63
2022/08/07 08:50:16;;;;;;;2.20;0.70;;;21.90;95.20;;;21.55;100.00;98159.53;4956330;28;20480;-64
2022/08/07 08:53:21;;;;;;;1.55;0.60;;;22.30;95.20;;;21.65;100.00;98160.53;4949140;28;20153;-64
2022/08/07 08:56:06;;;;;;;3.70;0.65;;;22.70;94.20;;;21.51;100.00;98161.59;4940229;28;20552;-65
2022/08/07 08:58:55;;;;;;;1.83;0.70;;;22.80;93.40;;;21.83;100.00;98155.59;4950625;28;20147;-65
2022/08/07 09:02:10;;;;;;;1.58;0.57;;;22.70;93.60;;;22.63;100.00;98160.56;4941279;28;20052;-64
2022/08/07 09:05:02;;;;;;;2.88;0.70;;;23.30;93.60;;;22.57;100.00;98158.41;4936757;28;20043;-64
2022/08/07 09:07:52;;;;;;;6.47;0.80;;;23.50;93.30;;;22.88;100.00;98154.06;4951682;28;20051;-65
2022/08/07 09:11:11;;;;;;;2.15;0.68;;;23.60;92.70;;;23.66;100.00;98145.72;4937019;28;20065;-64
2022/08/07 09:14:31;;;;;;;1.23;0.50;;;24.00;92.30;;;23.35;100.00;98151.00;4927101;28;20066;-65
2022/08/07 09:17:34;;;;;;;2.15;0.68;;;23.90;92.00;;;23.91;100.00;98141.78;4934463;28;20111;-64
2022/08/07 09:20:50;;;;;;;2.40;0.63;;;24.00;91.90;;;24.00;100.00;98147.09;4950907;28;20058;-64
2022/08/07 09:23:44;;;;;;;1.42;0.50;;;24.20;91.60;;;24.95;100.00;98150.09;4957769;28;20043;-64
2022/08/07 09:27:32;;;;;;;1.85;0.55;;;24.80;91.50;;;24.74;100.00;98140.47;4954227;28;20421;-64
2022/08/07 09:30:20;;;;;;;1.35;0.50;;;25.20;90.70;;;24.39;100.00;98143.69;4933001;28;20077;-65
2022/08/07 09:33:31;;;;;;;2.47;0.65;;;25.10;90.60;;;24.91;100.00;98133.63;4934985;28;20466;-64
2022/08/07 09:37:12;;;;;;;1.15;0.50;;;25.20;90.30;;;25.84;100.00;98134.59;4952589;28;20048;-65
2022/08/07 09:40:08;;;;;;;1.73;0.60;;;25.60;90.10;;;25.26;100.00;98134.84;4924748;28;20183;-65
2022/08/07 09:43:02;;;;;;;1.85;0.60;;;25.50;89.40;;;26.01;100.00;98130.31;4937946;28;20062;-65
2022/08/07 09:46:05;;;;;;;3.35;0.60;;;25.80;89.80;;;25.32;100.00;98128.13;4941555;28;20093;-65
2022/08/07 09:49:45;;;;;;;1.48;0.50;;;25.60;88.80;;;25.58;100.00;98125.63;4936719;28;20047;-65
2022/08/07 09:52:51;;;;;;;1.83;0.50;;;25.90;89.30;;;27.43;100.00;98114.38;4937902;28;20059;-65
2022/08/07 09:55:30;;;;;;;1.88;0.60;;;26.40;89.30;;;27.62;100.00;98112.44;4951076;28;20062;-65
2022/08/07 09:58:56;;;;;;;1.33;0.57;;;26.70;88.10;;;27.70;100.00;98112.50;4940213;28;20107;-65
2022/08/07 10:01:33;;;;;;;1.50;0.60;;;27.20;86.90;;;26.92;100.00;98111.53;4941048;28;20237;-65
2022/08/07 10:04:44;;;;;;;3.25;0.40;;;27.10;85.00;;;26.53;100.00;98111.06;4940079;28;20071;-65
2022/08/07 10:07:33;;;;;;;2.05;0.47;;;27.20;84.90;;;27.21;100.00;98099.78;4936843;28;20093;-65
2022/08/07 10:10:42;;;;;;;2.45;0.50;;;27.00;84.10;;;27.46;100.00;98099.88;4937332;28;20061;-65
2022/08/07 10:14:18;;;;;;;1.30;0.40;;;27.50;85.00;;;27.78;99.98;98093.88;4934505;28;20070;-65
2022/08/07 10:17:03;;;;;;;3.50;0.40;;;27.70;83.40;;;26.92;96.82;98092.06;4952254;28;20165;-65
2022/08/07 10:20:44;;;;;;;0.95;0.35;;;27.60;81.20;;;25.70;100.00;98097.84;4940536;28;20047;-65
2022/08/07 10:24:12;;;;;;;2.75;0.40;;;27.00;80.80;;;26.05;100.00;98089.16;4927603;28;20413;-65
2022/08/07 10:27:17;;;;;;;1.40;0.43;;;26.50;82.80;;;26.67;98.04;98093.72;4920261;29;20067;-64
2022/08/07 10:29:58;;;;;;;2.72;0.47;;;26.60;81.30;;;27.95;93.38;98084.91;4940953;28;20135;-65
2022/08/07 10:33:07;;;;;;;2.50;0.50;;;27.30;80.60;;;26.03;98.86;98082.31;4955066;28;20079;-65
2022/08/07 10:36:52;;;;;;;2.22;0.40;;;27.00;79.50;;;27.30;91.97;98077.50;4957354;28;20051;-65
2022/08/07 10:40:12;;;;;;;1.58;0.43;;;27.20;78.80;;;26.91;89.53;98083.25;4902527;29;20101;-65
2022/08/07 10:43:08;;;;;;;1.50;0.50;;;27.40;78.40;;;26.87;90.33;98075.72;4864913;28;20052;-65
2022/08/07 10:45:38;;;;;;;1.65;0.40;;;27.20;78.10;;;27.29;91.71;98070.50;4943780;28;20081;-64
2022/08/07 10:49:01;;;;;;;2.05;0.50;;;27.20;78.30;;;27.74;88.82;98061.34;4954660;28;20051;-65
2022/08/07 10:51:40;;;;;;;3.42;0.30;;;27.70;77.70;;;28.50;83.77;98056.00;4939324;28;20065;-66
2022/08/07 10:54:52;;;;;;;1.65;0.30;;;28.10;76.50;;;27.43;83.48;98057.56;4944025;28;20427;-66
2022/08/07 10:58:03;;;;;;;0.93;0.30;;;28.30;74.40;;;26.33;86.19;98067.78;4956159;28;20059;-66
2022/08/07 11:00:42;;;;;;;2.33;0.30;;;27.50;74.10;;;25.42;94.03;98057.97;4941270;28;20070;-66
2022/08/07 11:03:47;;;;;;;1.88;0.40;;;26.90;75.40;;;27.02;89.50;98065.31;4950226;28;20056;-65
2022/08/07 11:06:47;;;;;;;8.88;0.40;;;27.10;76.00;;;27.71;84.99;98058.16;4943255;28;20043;-64
2022/08/07 11:09:26;;;;;;;1.50;0.30;;;27.40;75.50;;;28.48;79.27;98058.00;4956634;28;20463;-64
2022/08/07 11:12:18;;;;;;;1.02;0.30;;;27.80;74.90;;;28.82;79.55;98046.28;4939618;28;20071;-64
2022/08/07 11:15:10;;;;;;;1.38;0.40;;;28.10;74.70;;;29.51;76.12;98038.56;4942676;28;20159;-64
2022/08/07 11:18:34;;;;;;;1.33;0.38;;;28.50;74.40;;;27.78;81.18;98034.31;4953221;28;20392;-65
2022/08/07 11:21:11;;;;;;;0.98;0.30;;;;;;;27.97;81.44;98043.91;4903998;29;20219;-64
2022/08/07 11:24:15;;;;;;;1.48;0.30;;;28.20;73.70;;;28.62;76.22;98051.97;4950199;28;20055;-64
2022/08/07 11:27:01;;;;;;;1.33;0.30;;;28.50;73.10;;;28.44;73.96;98043.25;4957005;28;20130;-66
2022/08/07 11:29:40;;;;;;;1.25;0.30;;;28.50;72.20;;;27.36;79.55;98044.03;4954846;28;20069;-65